Loon Lake, Canada
Current Conditions -  °F | °C
As of 9:00 PM on Saturday 24 Jan 2015 (Local Time) from CYOD Reporting Station
Broken Clouds Broken Clouds  
Wind Chill: 29°   Ceiling: 21000
Heat Index: 36°   Visibility: 15mi
Dew Point: 27°   Wind: 8mph
Humidity: 70%   Direction: 260°W
Pressure: 29.9"   Gusts: NA
Location:  54.03°N, 109.16°W
Report Text: CYOD 250300Z 26007KT 15SM BKN210 02/M03 A2990 RMK CI6 SLP148
Loading
Personal Weather Stations






























Interactive Weather Map New forecast layout! Learn more

10-Day Weather Forecast

Advertisements
Track Severe Weather on mobile